Weather History for Bentonville, AR

Change the Weather History Date:

Tuesday, December 27, 2011

  Actual Average Record
Temperature  
Mean Temperature 40 °F -  
Max Temperature 48 °F 46 °F 72 °F (1971)
Min Temperature 32 °F 26 °F 7 °F (1983)
Degree Days  
Heating Degree Days 24    
Moisture  
Dew Point 29 °F    
Average Humidity 67    
Maximum Humidity 93    
Minimum Humidity 40    
Precipitation  
Precipitation 0.00 in - - ()
Sea Level Pressure  
Sea Level Pressure 30.02 in    
Wind  
Wind Speed 8 mph (WNW)    
Max Wind Speed 17 mph    
Max Gust Speed 24 mph    
Visibility 10 miles    
Events      
Averages and records for this station are not official NWS values.
T = Trace of Precipitation, MM = Missing Value Source: NWS Daily Summary

Daily Weather History Graph

Daily Weather History Graph

Search for Another Location

Airport:

Trip Planner

Search our weather history database for the weather conditions in past years. The results will help you decide how hot, cold, wet, or windy it might be!

Date:

Astronomy

Dec. 27, 2011 Rise Set
Actual Time 7:27 AM CST 5:08 PM CST
Civil Twilight 6:58 AM CST 5:37 PM CST
Nautical Twilight 6:26 AM CST 6:09 PM CST
Astronomical Twilight 5:54 AM CST 6:41 PM CST
Moon 9:27 AM CST (12/27) 8:37 PM CST (12/27)
Length of Visible Light 10h 39m
Length of Day
9h 41m
Waxing Crescent, 11% of the Moon is Illuminated
Dec 27
Waxing Crescent
Jan 1
First Quarter
Jan 9
Full
Jan 16
Last Quarter
Jan 23
New

Hourly Weather History & Observations

Time (CST) Temp. Windchill Dew Point Humidity Pressure Visibility Wind Dir Wind Speed Gust Speed Precip Events Conditions
12:35 AM 37.4 °F 34.9 °F 35.6 °F 93% 29.89 in 9.0 mi West 3.5 mph - N/A   Mostly Cloudy
12:55 AM 37.4 °F 32.8 °F 35.6 °F 93% 29.90 in 10.0 mi West 5.8 mph - N/A   Overcast
1:15 AM 39.2 °F 33.6 °F 35.6 °F 87% 29.89 in 10.0 mi WNW 8.1 mph - N/A   Overcast
1:35 AM 39.2 °F 33.6 °F 35.6 °F 87% 29.89 in 10.0 mi WNW 8.1 mph - N/A   Overcast
1:55 AM 39.2 °F 33.6 °F 35.6 °F 87% 29.89 in 10.0 mi WNW 8.1 mph - N/A   Overcast
2:15 AM 39.2 °F 34.2 °F 35.6 °F 87% 29.90 in 10.0 mi WNW 6.9 mph - N/A   Overcast
2:35 AM 41.0 °F 35.2 °F 35.6 °F 81% 29.90 in 10.0 mi NW 9.2 mph - N/A   Overcast
2:55 AM 39.2 °F 32.5 °F 35.6 °F 87% 29.90 in 10.0 mi NW 10.4 mph - N/A   Overcast
3:15 AM 39.2 °F 32.0 °F 33.8 °F 81% 29.90 in 10.0 mi WNW 11.5 mph - N/A   Partly Cloudy
3:35 AM 39.2 °F 32.5 °F 33.8 °F 81% 29.91 in 10.0 mi WNW 10.4 mph - N/A   Clear
3:55 AM 37.4 °F 31.4 °F 33.8 °F 87% 29.91 in 10.0 mi WNW 8.1 mph - N/A   Clear
4:15 AM 37.4 °F 32.1 °F 32.0 °F 81% 29.91 in 10.0 mi WNW 6.9 mph - N/A   Clear
4:55 AM 35.6 °F 28.6 °F 30.2 °F 81% 29.92 in 10.0 mi WNW 9.2 mph - N/A   Clear
5:15 AM 35.6 °F 29.9 °F 30.2 °F 81% 29.93 in 10.0 mi WNW 6.9 mph - N/A   Clear
5:35 AM 35.6 °F 29.9 °F 30.2 °F 81% 29.93 in 10.0 mi West 6.9 mph - N/A   Clear
5:55 AM 35.6 °F 29.2 °F 30.2 °F 81% 29.95 in 10.0 mi WNW 8.1 mph - N/A   Clear
6:15 AM 33.8 °F 26.4 °F 30.2 °F 87% 29.96 in 10.0 mi WNW 9.2 mph - N/A   Clear
6:35 AM 35.6 °F 29.9 °F 28.4 °F 75% 29.98 in 10.0 mi WNW 6.9 mph - N/A   Clear
6:55 AM 33.8 °F 27.7 °F 28.4 °F 81% 29.98 in 10.0 mi NW 6.9 mph - N/A   Clear
7:15 AM 33.8 °F 27.7 °F 28.4 °F 81% 29.99 in 10.0 mi NW 6.9 mph - N/A   Clear
7:35 AM 33.8 °F 28.6 °F 28.4 °F 81% 30.00 in 10.0 mi WNW 5.8 mph - N/A   Clear
7:55 AM 33.8 °F 27.7 °F 28.4 °F 81% 30.01 in 10.0 mi WNW 6.9 mph - N/A   Clear
8:15 AM 33.8 °F 27.7 °F 28.4 °F 81% 30.02 in 10.0 mi WNW 6.9 mph - N/A   Clear
8:35 AM 35.6 °F 29.2 °F 28.4 °F 75% 30.03 in 10.0 mi NW 8.1 mph - N/A   Clear
8:55 AM 35.6 °F 28.6 °F 28.4 °F 75% 30.04 in 10.0 mi NW 9.2 mph - N/A   Clear
9:15 AM 37.4 °F 32.1 °F 28.4 °F 70% 30.05 in 10.0 mi NW 6.9 mph - N/A   Clear
9:35 AM 39.2 °F 33.0 °F 28.4 °F 65% 30.06 in 10.0 mi NW 9.2 mph - N/A   Clear
9:55 AM 39.2 °F 33.0 °F 28.4 °F 65% 30.06 in 10.0 mi NW 9.2 mph - N/A   Clear
10:15 AM 41.0 °F 35.2 °F 28.4 °F 61% 30.07 in 10.0 mi NNW 9.2 mph 16.1 mph N/A   Clear
10:55 AM 42.8 °F 36.6 °F 28.4 °F 57% 30.07 in 10.0 mi NW 11.5 mph 16.1 mph N/A   Clear
11:15 AM 44.6 °F 38.1 °F 28.4 °F 53% 30.07 in 10.0 mi NW 13.8 mph 17.3 mph N/A   Clear
11:35 AM 44.6 °F 37.2 °F 28.4 °F 53% 30.06 in 10.0 mi NW 17.3 mph 24.2 mph N/A   Clear
11:55 AM 44.6 °F 37.8 °F 26.6 °F 49% 30.05 in 10.0 mi NW 15.0 mph 21.9 mph N/A   Clear
12:15 PM 46.4 °F 41.5 °F 26.6 °F 46% 30.04 in 10.0 mi NW 10.4 mph 17.3 mph N/A   Clear
12:35 PM 46.4 °F 40.7 °F 28.4 °F 50% 30.04 in 10.0 mi WNW 12.7 mph 19.6 mph N/A   Clear
12:55 PM 46.4 °F 40.7 °F 26.6 °F 46% 30.04 in 10.0 mi NW 12.7 mph 21.9 mph N/A   Clear
1:35 PM 48.2 °F - 26.6 °F 43% 30.04 in 10.0 mi NW 16.1 mph 21.9 mph N/A   Clear
1:55 PM 48.2 °F - 26.6 °F 43% 30.05 in 10.0 mi NW 17.3 mph 23.0 mph N/A   Clear
2:15 PM 46.4 °F 40.1 °F 24.8 °F 43% 30.05 in 10.0 mi NW 15.0 mph 23.0 mph N/A   Clear
2:35 PM 48.2 °F - 24.8 °F 40% 30.06 in 10.0 mi NW 13.8 mph 20.7 mph N/A   Clear
2:55 PM 48.2 °F - 24.8 °F 40% 30.06 in 10.0 mi NW 13.8 mph 17.3 mph N/A   Clear
3:15 PM 48.2 °F - 24.8 °F 40% 30.05 in 10.0 mi NNW 12.7 mph 17.3 mph N/A   Clear
3:35 PM 46.4 °F 40.7 °F 26.6 °F 46% 30.06 in 10.0 mi WNW 12.7 mph - N/A   Clear
3:55 PM 46.4 °F 41.1 °F 26.6 °F 46% 30.07 in 10.0 mi WNW 11.5 mph 17.3 mph N/A   Clear
4:15 PM 46.4 °F 41.1 °F 26.6 °F 46% 30.08 in 10.0 mi WNW 11.5 mph - N/A   Clear
4:35 PM 44.6 °F 39.2 °F 26.6 °F 49% 30.08 in 10.0 mi WNW 10.4 mph - N/A   Clear
4:55 PM 44.6 °F 39.2 °F 24.8 °F 46% 30.08 in 10.0 mi WNW 10.4 mph - N/A   Clear
5:15 PM 42.8 °F 38.6 °F 24.8 °F 49% 30.08 in 10.0 mi NW 6.9 mph - N/A   Clear
5:55 PM 41.0 °F 36.4 °F 24.8 °F 53% 30.10 in 10.0 mi WNW 6.9 mph - N/A   Clear
6:55 PM 37.4 °F - 24.8 °F 60% 30.10 in 10.0 mi Calm Calm - N/A   Clear
7:15 PM 35.6 °F - 24.8 °F 65% 30.10 in 10.0 mi Calm Calm - N/A   Clear
7:35 PM 33.8 °F 30.8 °F 23.0 °F 65% 30.11 in 10.0 mi SSW 3.5 mph - N/A   Clear
7:55 PM 35.6 °F 31.7 °F 24.8 °F 65% 30.11 in 10.0 mi SW 4.6 mph - N/A   Clear
8:15 PM 33.8 °F 30.8 °F 24.8 °F 70% 30.13 in 10.0 mi West 3.5 mph - N/A   Clear
8:35 PM 33.8 °F 30.8 °F 24.8 °F 70% 30.13 in 10.0 mi WSW 3.5 mph - N/A   Clear
8:55 PM 33.8 °F - 24.8 °F 70% 30.13 in 10.0 mi Calm Calm - N/A   Clear
9:15 PM 32.0 °F 28.7 °F 23.0 °F 69% 30.12 in 10.0 mi SSW 3.5 mph - N/A   Clear
9:35 PM 30.2 °F 26.7 °F 24.8 °F 80% 30.11 in 10.0 mi SSE 3.5 mph - N/A   Clear
9:55 PM 30.2 °F - 24.8 °F 80% 30.11 in 10.0 mi Calm Calm - N/A   Clear
10:15 PM 28.4 °F - 23.0 °F 80% 30.11 in 10.0 mi Calm Calm - N/A   Clear
10:35 PM 30.2 °F - 24.8 °F 80% 30.12 in 10.0 mi Calm Calm - N/A   Clear
10:55 PM 28.4 °F - 24.8 °F 86% 30.13 in 10.0 mi Calm Calm - N/A   Clear
11:15 PM 28.4 °F - 24.8 °F 86% 30.14 in 10.0 mi Calm Calm - N/A   Clear
11:35 PM 28.4 °F - 24.8 °F 86% 30.14 in 10.0 mi Calm Calm - N/A   Clear
11:55 PM 28.4 °F - 23.0 °F 80% 30.14 in 10.0 mi Calm Calm - N/A   Clear